sensor_id;sensor_type;location;lat;lon;timestamp;P1;durP1;ratioP1;P2;durP2;ratioP2
63326;SDS011;49452;48.366;10.926;2023-08-21T00:00:02;16.75;;;9.50;;
63326;SDS011;49452;48.366;10.926;2023-08-21T00:00:37;12.80;;;10.40;;
63326;SDS011;49452;48.366;10.926;2023-08-21T00:01:08;16.45;;;11.23;;
63326;SDS011;49452;48.366;10.926;2023-08-21T00:01:40;12.30;;;9.73;;
63326;SDS011;49452;48.366;10.926;2023-08-21T00:02:12;11.82;;;10.57;;
63326;SDS011;49452;48.366;10.926;2023-08-21T00:02:43;12.15;;;10.65;;
63326;SDS011;49452;48.366;10.926;2023-08-21T00:03:14;13.82;;;10.23;;
63326;SDS011;49452;48.366;10.926;2023-08-21T00:03:46;14.32;;;11.15;;
63326;SDS011;49452;48.366;10.926;2023-08-21T00:04:17;15.73;;;11.70;;
63326;SDS011;49452;48.366;10.926;2023-08-21T00:04:49;14.00;;;10.93;;
63326;SDS011;49452;48.366;10.926;2023-08-21T00:05:20;13.15;;;10.65;;
63326;SDS011;49452;48.366;10.926;2023-08-21T00:05:51;13.95;;;10.80;;
63326;SDS011;49452;48.366;10.926;2023-08-21T00:06:23;14.65;;;10.80;;
63326;SDS011;49452;48.366;10.926;2023-08-21T00:06:54;13.18;;;11.13;;
63326;SDS011;49452;48.366;10.926;2023-08-21T00:07:25;12.85;;;11.25;;
63326;SDS011;49452;48.366;10.926;2023-08-21T00:07:56;17.48;;;12.38;;
63326;SDS011;49452;48.366;10.926;2023-08-21T00:08:28;15.48;;;11.55;;
63326;SDS011;49452;48.366;10.926;2023-08-21T00:09:00;13.82;;;11.18;;
63326;SDS011;49452;48.366;10.926;2023-08-21T00:09:32;13.18;;;11.25;;
63326;SDS011;49452;48.366;10.926;2023-08-21T00:10:04;15.18;;;11.13;;
63326;SDS011;49452;48.366;10.926;2023-08-21T00:10:38;13.82;;;11.80;;
63326;SDS011;49452;48.366;10.926;2023-08-21T00:11:12;13.85;;;11.43;;
63326;SDS011;49452;48.366;10.926;2023-08-21T00:11:43;12.98;;;11.57;;
63326;SDS011;49452;48.366;10.926;2023-08-21T00:12:14;19.85;;;12.00;;
63326;SDS011;49452;48.366;10.926;2023-08-21T00:12:45;12.85;;;11.55;;
63326;SDS011;49452;48.366;10.926;2023-08-21T00:13:16;18.15;;;12.00;;
63326;SDS011;49452;48.366;10.926;2023-08-21T00:13:48;15.32;;;11.50;;
63326;SDS011;49452;48.366;10.926;2023-08-21T00:14:20;15.32;;;11.75;;
63326;SDS011;49452;48.366;10.926;2023-08-21T00:14:51;15.70;;;11.50;;
63326;SDS011;49452;48.366;10.926;2023-08-21T00:15:22;13.02;;;10.95;;
63326;SDS011;49452;48.366;10.926;2023-08-21T00:15:55;15.70;;;10.70;;
63326;SDS011;49452;48.366;10.926;2023-08-21T00:16:29;14.35;;;11.82;;
63326;SDS011;49452;48.366;10.926;2023-08-21T00:17:01;16.30;;;12.07;;
63326;SDS011;49452;48.366;10.926;2023-08-21T00:17:37;15.18;;;11.70;;
63326;SDS011;49452;48.366;10.926;2023-08-21T00:18:08;15.15;;;11.75;;
63326;SDS011;49452;48.366;10.926;2023-08-21T00:18:39;15.80;;;12.20;;
63326;SDS011;49452;48.366;10.926;2023-08-21T00:19:11;15.85;;;13.27;;
63326;SDS011;49452;48.366;10.926;2023-08-21T00:19:42;15.50;;;13.07;;
63326;SDS011;49452;48.366;10.926;2023-08-21T00:20:13;15.40;;;12.30;;
63326;SDS011;49452;48.366;10.926;2023-08-21T00:20:44;18.67;;;13.18;;
63326;SDS011;49452;48.366;10.926;2023-08-21T00:21:16;16.08;;;13.57;;
63326;SDS011;49452;48.366;10.926;2023-08-21T00:21:47;16.83;;;13.52;;
63326;SDS011;49452;48.366;10.926;2023-08-21T00:22:19;15.75;;;12.68;;
63326;SDS011;49452;48.366;10.926;2023-08-21T00:22:50;17.10;;;13.75;;
63326;SDS011;49452;48.366;10.926;2023-08-21T00:23:21;16.63;;;12.98;;
63326;SDS011;49452;48.366;10.926;2023-08-21T00:23:52;17.55;;;13.63;;
63326;SDS011;49452;48.366;10.926;2023-08-21T00:24:24;17.92;;;13.18;;
63326;SDS011;49452;48.366;10.926;2023-08-21T00:24:55;15.65;;;13.52;;
63326;SDS011;49452;48.366;10.926;2023-08-21T00:25:26;15.07;;;13.40;;
63326;SDS011;49452;48.366;10.926;2023-08-21T00:25:57;15.10;;;12.88;;
63326;SDS011;49452;48.366;10.926;2023-08-21T00:26:28;17.17;;;13.00;;
63326;SDS011;49452;48.366;10.926;2023-08-21T00:27:00;17.45;;;12.98;;
63326;SDS011;49452;48.366;10.926;2023-08-21T00:27:32;16.85;;;12.77;;
63326;SDS011;49452;48.366;10.926;2023-08-21T00:28:03;15.38;;;12.73;;
63326;SDS011;49452;48.366;10.926;2023-08-21T00:28:35;15.43;;;13.45;;
63326;SDS011;49452;48.366;10.926;2023-08-21T00:29:06;17.02;;;14.32;;
63326;SDS011;49452;48.366;10.926;2023-08-21T00:29:37;19.63;;;14.25;;
63326;SDS011;49452;48.366;10.926;2023-08-21T00:30:09;16.63;;;14.52;;
63326;SDS011;49452;48.366;10.926;2023-08-21T00:30:41;17.30;;;15.05;;
63326;SDS011;49452;48.366;10.926;2023-08-21T00:31:13;20.88;;;15.65;;
63326;SDS011;49452;48.366;10.926;2023-08-21T00:31:44;16.48;;;14.45;;
63326;SDS011;49452;48.366;10.926;2023-08-21T00:32:15;16.70;;;14.00;;
63326;SDS011;49452;48.366;10.926;2023-08-21T00:32:46;16.45;;;14.75;;
63326;SDS011;49452;48.366;10.926;2023-08-21T00:33:17;21.20;;;15.00;;
63326;SDS011;49452;48.366;10.926;2023-08-21T00:33:49;19.70;;;14.95;;
63326;SDS011;49452;48.366;10.926;2023-08-21T00:34:20;16.63;;;14.82;;
63326;SDS011;49452;48.366;10.926;2023-08-21T00:34:51;21.63;;;15.70;;
63326;SDS011;49452;48.366;10.926;2023-08-21T00:35:23;20.27;;;16.38;;
63326;SDS011;49452;48.366;10.926;2023-08-21T00:35:54;25.83;;;17.25;;
63326;SDS011;49452;48.366;10.926;2023-08-21T00:36:26;23.73;;;16.75;;
63326;SDS011;49452;48.366;10.926;2023-08-21T00:36:57;21.75;;;15.77;;
63326;SDS011;49452;48.366;10.926;2023-08-21T00:37:28;19.85;;;15.70;;
63326;SDS011;49452;48.366;10.926;2023-08-21T00:37:59;19.27;;;15.68;;
63326;SDS011;49452;48.366;10.926;2023-08-21T00:38:30;18.23;;;15.63;;
63326;SDS011;49452;48.366;10.926;2023-08-21T00:39:03;18.08;;;15.73;;
63326;SDS011;49452;48.366;10.926;2023-08-21T00:39:34;18.27;;;15.23;;
63326;SDS011;49452;48.366;10.926;2023-08-21T00:40:06;19.98;;;16.55;;
63326;SDS011;49452;48.366;10.926;2023-08-21T00:40:38;19.35;;;17.23;;
63326;SDS011;49452;48.366;10.926;2023-08-21T00:41:09;21.13;;;16.60;;
63326;SDS011;49452;48.366;10.926;2023-08-21T00:41:40;20.83;;;16.83;;
63326;SDS011;49452;48.366;10.926;2023-08-21T00:42:13;19.13;;;16.83;;
63326;SDS011;49452;48.366;10.926;2023-08-21T00:42:44;20.20;;;16.17;;
63326;SDS011;49452;48.366;10.926;2023-08-21T00:43:15;18.65;;;16.35;;
63326;SDS011;49452;48.366;10.926;2023-08-21T00:43:47;19.73;;;16.10;;
63326;SDS011;49452;48.366;10.926;2023-08-21T00:44:18;24.40;;;17.70;;
63326;SDS011;49452;48.366;10.926;2023-08-21T00:44:49;18.67;;;16.67;;
63326;SDS011;49452;48.366;10.926;2023-08-21T00:45:20;17.98;;;16.08;;
63326;SDS011;49452;48.366;10.926;2023-08-21T00:45:52;24.58;;;16.85;;
63326;SDS011;49452;48.366;10.926;2023-08-21T00:46:23;20.42;;;15.95;;
63326;SDS011;49452;48.366;10.926;2023-08-21T00:46:55;24.45;;;17.92;;
63326;SDS011;49452;48.366;10.926;2023-08-21T00:47:26;26.83;;;16.95;;
63326;SDS011;49452;48.366;10.926;2023-08-21T00:47:58;20.23;;;15.73;;
63326;SDS011;49452;48.366;10.926;2023-08-21T00:48:29;19.33;;;16.00;;
63326;SDS011;49452;48.366;10.926;2023-08-21T00:49:00;18.88;;;16.65;;
63326;SDS011;49452;48.366;10.926;2023-08-21T00:49:33;21.75;;;17.55;;
63326;SDS011;49452;48.366;10.926;2023-08-21T00:50:05;21.90;;;17.70;;
63326;SDS011;49452;48.366;10.926;2023-08-21T00:50:37;23.05;;;17.90;;
63326;SDS011;49452;48.366;10.926;2023-08-21T00:51:11;25.38;;;17.10;;
63326;SDS011;49452;48.366;10.926;2023-08-21T00:51:44;24.25;;;19.77;;
63326;SDS011;49452;48.366;10.926;2023-08-21T00:52:15;24.05;;;17.40;;
63326;SDS011;49452;48.366;10.926;2023-08-21T00:52:47;21.42;;;18.50;;
63326;SDS011;49452;48.366;10.926;2023-08-21T00:53:19;24.25;;;17.27;;
63326;SDS011;49452;48.366;10.926;2023-08-21T00:53:50;21.20;;;17.00;;
63326;SDS011;49452;48.366;10.926;2023-08-21T00:54:23;18.13;;;16.23;;
63326;SDS011;49452;48.366;10.926;2023-08-21T00:54:55;21.95;;;17.75;;
63326;SDS011;49452;48.366;10.926;2023-08-21T00:55:26;18.90;;;16.67;;
63326;SDS011;49452;48.366;10.926;2023-08-21T00:55:58;23.52;;;17.50;;
63326;SDS011;49452;48.366;10.926;2023-08-21T00:56:29;23.30;;;17.77;;
63326;SDS011;49452;48.366;10.926;2023-08-21T00:57:01;21.25;;;18.10;;
63326;SDS011;49452;48.366;10.926;2023-08-21T00:57:32;24.65;;;18.73;;
63326;SDS011;49452;48.366;10.926;2023-08-21T00:58:04;25.85;;;20.40;;
63326;SDS011;49452;48.366;10.926;2023-08-21T00:58:35;25.73;;;19.45;;
63326;SDS011;49452;48.366;10.926;2023-08-21T00:59:07;30.25;;;19.85;;
63326;SDS011;49452;48.366;10.926;2023-08-21T00:59:38;31.52;;;21.27;;
63326;SDS011;49452;48.366;10.926;2023-08-21T01:00:10;26.75;;;19.50;;
63326;SDS011;49452;48.366;10.926;2023-08-21T01:00:44;20.23;;;17.98;;
63326;SDS011;49452;48.366;10.926;2023-08-21T01:01:16;21.40;;;18.73;;
63326;SDS011;49452;48.366;10.926;2023-08-21T01:01:49;26.48;;;19.75;;
63326;SDS011;49452;48.366;10.926;2023-08-21T01:02:21;23.58;;;19.73;;
63326;SDS011;49452;48.366;10.926;2023-08-21T01:02:52;22.50;;;20.13;;
63326;SDS011;49452;48.366;10.926;2023-08-21T01:03:24;29.15;;;20.60;;
63326;SDS011;49452;48.366;10.926;2023-08-21T01:03:55;28.17;;;21.42;;
63326;SDS011;49452;48.366;10.926;2023-08-21T01:04:26;26.60;;;20.17;;
63326;SDS011;49452;48.366;10.926;2023-08-21T01:04:58;21.73;;;19.42;;
63326;SDS011;49452;48.366;10.926;2023-08-21T01:05:29;26.40;;;21.75;;
63326;SDS011;49452;48.366;10.926;2023-08-21T01:06:01;31.80;;;22.98;;
63326;SDS011;49452;48.366;10.926;2023-08-21T01:06:32;27.30;;;19.30;;
63326;SDS011;49452;48.366;10.926;2023-08-21T01:07:03;30.27;;;21.25;;
63326;SDS011;49452;48.366;10.926;2023-08-21T01:07:44;20.80;;;18.13;;
63326;SDS011;49452;48.366;10.926;2023-08-21T01:09:42;34.38;;;21.33;;
63326;SDS011;49452;48.366;10.926;2023-08-21T01:11:11;27.52;;;21.05;;
63326;SDS011;49452;48.366;10.926;2023-08-21T01:13:03;27.98;;;20.58;;
63326;SDS011;49452;48.366;10.926;2023-08-21T01:13:59;26.83;;;18.90;;
63326;SDS011;49452;48.366;10.926;2023-08-21T01:14:42;28.70;;;20.75;;
63326;SDS011;49452;48.366;10.926;2023-08-21T01:15:31;26.85;;;20.85;;
63326;SDS011;49452;48.366;10.926;2023-08-21T01:16:04;27.88;;;20.60;;
63326;SDS011;49452;48.366;10.926;2023-08-21T01:16:37;26.65;;;21.35;;
63326;SDS011;49452;48.366;10.926;2023-08-21T01:17:09;27.00;;;21.02;;
63326;SDS011;49452;48.366;10.926;2023-08-21T01:17:41;27.33;;;22.10;;
63326;SDS011;49452;48.366;10.926;2023-08-21T01:18:14;30.30;;;22.40;;
63326;SDS011;49452;48.366;10.926;2023-08-21T01:18:46;29.27;;;21.25;;
63326;SDS011;49452;48.366;10.926;2023-08-21T01:19:24;24.95;;;21.30;;
63326;SDS011;49452;48.366;10.926;2023-08-21T01:20:05;30.48;;;22.00;;
63326;SDS011;49452;48.366;10.926;2023-08-21T01:20:39;33.67;;;22.98;;
63326;SDS011;49452;48.366;10.926;2023-08-21T01:21:12;30.70;;;24.08;;
63326;SDS011;49452;48.366;10.926;2023-08-21T01:21:43;25.35;;;22.48;;
63326;SDS011;49452;48.366;10.926;2023-08-21T01:22:14;33.53;;;24.98;;
63326;SDS011;49452;48.366;10.926;2023-08-21T01:22:46;31.50;;;23.80;;
63326;SDS011;49452;48.366;10.926;2023-08-21T01:24:20;38.72;;;26.30;;
63326;SDS011;49452;48.366;10.926;2023-08-21T01:24:52;34.25;;;24.63;;
63326;SDS011;49452;48.366;10.926;2023-08-21T01:25:23;35.10;;;25.50;;
63326;SDS011;49452;48.366;10.926;2023-08-21T01:25:54;35.92;;;25.05;;
63326;SDS011;49452;48.366;10.926;2023-08-21T01:26:27;51.15;;;30.27;;
63326;SDS011;49452;48.366;10.926;2023-08-21T01:26:58;49.17;;;30.27;;
63326;SDS011;49452;48.366;10.926;2023-08-21T01:27:31;38.63;;;27.65;;
63326;SDS011;49452;48.366;10.926;2023-08-21T01:28:03;34.30;;;25.83;;
63326;SDS011;49452;48.366;10.926;2023-08-21T01:28:35;41.55;;;28.70;;
63326;SDS011;49452;48.366;10.926;2023-08-21T01:29:06;39.80;;;26.92;;
63326;SDS011;49452;48.366;10.926;2023-08-21T01:29:37;39.38;;;27.77;;
63326;SDS011;49452;48.366;10.926;2023-08-21T01:30:09;35.67;;;26.02;;
63326;SDS011;49452;48.366;10.926;2023-08-21T01:30:40;40.05;;;27.92;;
63326;SDS011;49452;48.366;10.926;2023-08-21T01:31:15;55.38;;;32.15;;
63326;SDS011;49452;48.366;10.926;2023-08-21T01:33:16;37.75;;;26.52;;
63326;SDS011;49452;48.366;10.926;2023-08-21T01:33:51;33.17;;;25.25;;
63326;SDS011;49452;48.366;10.926;2023-08-21T01:34:28;37.45;;;26.45;;
63326;SDS011;49452;48.366;10.926;2023-08-21T01:34:59;36.05;;;24.88;;
63326;SDS011;49452;48.366;10.926;2023-08-21T01:35:31;34.38;;;23.05;;
63326;SDS011;49452;48.366;10.926;2023-08-21T01:36:05;33.03;;;24.92;;
63326;SDS011;49452;48.366;10.926;2023-08-21T01:36:37;31.15;;;24.65;;
63326;SDS011;49452;48.366;10.926;2023-08-21T01:37:09;34.03;;;25.35;;
63326;SDS011;49452;48.366;10.926;2023-08-21T01:37:40;38.17;;;26.98;;
63326;SDS011;49452;48.366;10.926;2023-08-21T01:38:12;39.38;;;26.67;;
63326;SDS011;49452;48.366;10.926;2023-08-21T01:38:44;32.38;;;24.52;;
63326;SDS011;49452;48.366;10.926;2023-08-21T01:39:16;36.90;;;25.15;;
63326;SDS011;49452;48.366;10.926;2023-08-21T01:39:47;33.08;;;24.35;;
63326;SDS011;49452;48.366;10.926;2023-08-21T01:40:20;28.10;;;21.65;;
63326;SDS011;49452;48.366;10.926;2023-08-21T01:40:55;35.25;;;26.50;;
63326;SDS011;49452;48.366;10.926;2023-08-21T01:41:26;41.05;;;27.25;;
63326;SDS011;49452;48.366;10.926;2023-08-21T01:41:59;34.67;;;25.27;;
63326;SDS011;49452;48.366;10.926;2023-08-21T01:42:30;37.63;;;26.50;;
63326;SDS011;49452;48.366;10.926;2023-08-21T01:43:02;42.00;;;27.90;;
63326;SDS011;49452;48.366;10.926;2023-08-21T01:43:33;39.75;;;27.60;;
63326;SDS011;49452;48.366;10.926;2023-08-21T01:44:04;33.25;;;25.30;;
63326;SDS011;49452;48.366;10.926;2023-08-21T01:44:35;35.70;;;26.15;;
63326;SDS011;49452;48.366;10.926;2023-08-21T01:45:08;36.08;;;24.98;;
63326;SDS011;49452;48.366;10.926;2023-08-21T01:45:39;34.95;;;24.20;;
63326;SDS011;49452;48.366;10.926;2023-08-21T01:46:11;34.50;;;25.40;;
63326;SDS011;49452;48.366;10.926;2023-08-21T01:46:43;35.55;;;26.23;;
63326;SDS011;49452;48.366;10.926;2023-08-21T01:47:14;34.70;;;26.60;;
63326;SDS011;49452;48.366;10.926;2023-08-21T01:47:45;43.22;;;27.80;;
63326;SDS011;49452;48.366;10.926;2023-08-21T01:48:16;39.83;;;24.80;;
63326;SDS011;49452;48.366;10.926;2023-08-21T01:48:48;29.90;;;23.90;;
63326;SDS011;49452;48.366;10.926;2023-08-21T01:49:19;35.25;;;23.05;;
63326;SDS011;49452;48.366;10.926;2023-08-21T01:49:51;36.33;;;25.73;;
63326;SDS011;49452;48.366;10.926;2023-08-21T01:50:23;37.58;;;26.65;;
63326;SDS011;49452;48.366;10.926;2023-08-21T01:50:54;38.90;;;27.38;;
63326;SDS011;49452;48.366;10.926;2023-08-21T01:51:27;34.28;;;26.50;;
63326;SDS011;49452;48.366;10.926;2023-08-21T01:51:58;35.28;;;25.55;;
63326;SDS011;49452;48.366;10.926;2023-08-21T01:52:30;36.08;;;25.10;;
63326;SDS011;49452;48.366;10.926;2023-08-21T01:53:01;27.80;;;24.02;;
63326;SDS011;49452;48.366;10.926;2023-08-21T01:53:32;27.90;;;23.23;;
63326;SDS011;49452;48.366;10.926;2023-08-21T01:54:03;30.90;;;23.05;;
63326;SDS011;49452;48.366;10.926;2023-08-21T01:54:35;31.92;;;22.75;;
63326;SDS011;49452;48.366;10.926;2023-08-21T01:55:06;28.70;;;22.55;;
63326;SDS011;49452;48.366;10.926;2023-08-21T01:55:41;28.05;;;22.27;;
63326;SDS011;49452;48.366;10.926;2023-08-21T01:56:12;38.47;;;26.73;;
63326;SDS011;49452;48.366;10.926;2023-08-21T01:56:43;38.80;;;27.00;;
63326;SDS011;49452;48.366;10.926;2023-08-21T01:57:15;36.17;;;25.67;;
63326;SDS011;49452;48.366;10.926;2023-08-21T01:57:46;30.63;;;23.52;;
63326;SDS011;49452;48.366;10.926;2023-08-21T01:58:18;35.42;;;24.27;;
63326;SDS011;49452;48.366;10.926;2023-08-21T01:58:49;31.15;;;23.67;;
63326;SDS011;49452;48.366;10.926;2023-08-21T01:59:20;32.90;;;23.52;;
63326;SDS011;49452;48.366;10.926;2023-08-21T01:59:52;29.00;;;22.60;;
63326;SDS011;49452;48.366;10.926;2023-08-21T02:00:23;33.55;;;24.85;;
63326;SDS011;49452;48.366;10.926;2023-08-21T02:00:54;39.33;;;25.65;;
63326;SDS011;49452;48.366;10.926;2023-08-21T02:01:26;34.70;;;25.27;;
63326;SDS011;49452;48.366;10.926;2023-08-21T02:01:57;37.25;;;25.70;;
63326;SDS011;49452;48.366;10.926;2023-08-21T02:02:29;34.65;;;24.50;;
63326;SDS011;49452;48.366;10.926;2023-08-21T02:03:01;34.20;;;25.10;;
63326;SDS011;49452;48.366;10.926;2023-08-21T02:03:33;36.33;;;25.90;;
63326;SDS011;49452;48.366;10.926;2023-08-21T02:04:04;35.90;;;25.52;;
63326;SDS011;49452;48.366;10.926;2023-08-21T02:04:36;43.22;;;28.20;;
63326;SDS011;49452;48.366;10.926;2023-08-21T02:05:07;43.08;;;26.90;;
63326;SDS011;49452;48.366;10.926;2023-08-21T02:05:38;40.75;;;26.15;;
63326;SDS011;49452;48.366;10.926;2023-08-21T02:06:10;37.28;;;25.75;;
63326;SDS011;49452;48.366;10.926;2023-08-21T02:06:44;34.50;;;25.73;;
63326;SDS011;49452;48.366;10.926;2023-08-21T02:07:15;37.97;;;25.88;;
63326;SDS011;49452;48.366;10.926;2023-08-21T02:07:46;39.47;;;25.42;;
63326;SDS011;49452;48.366;10.926;2023-08-21T02:08:17;40.72;;;26.63;;
63326;SDS011;49452;48.366;10.926;2023-08-21T02:08:49;39.60;;;27.90;;
63326;SDS011;49452;48.366;10.926;2023-08-21T02:09:22;39.40;;;27.23;;
63326;SDS011;49452;48.366;10.926;2023-08-21T02:09:53;38.63;;;27.10;;
63326;SDS011;49452;48.366;10.926;2023-08-21T02:10:25;31.27;;;24.40;;
63326;SDS011;49452;48.366;10.926;2023-08-21T02:10:56;32.40;;;25.42;;
63326;SDS011;49452;48.366;10.926;2023-08-21T02:11:27;24.95;;;21.65;;
63326;SDS011;49452;48.366;10.926;2023-08-21T02:11:58;38.42;;;26.65;;
63326;SDS011;49452;48.366;10.926;2023-08-21T02:12:30;31.55;;;23.15;;
63326;SDS011;49452;48.366;10.926;2023-08-21T02:13:02;28.42;;;21.13;;
63326;SDS011;49452;48.366;10.926;2023-08-21T02:13:33;49.10;;;28.55;;
63326;SDS011;49452;48.366;10.926;2023-08-21T02:14:05;23.35;;;20.52;;
63326;SDS011;49452;48.366;10.926;2023-08-21T02:14:37;29.23;;;21.60;;
63326;SDS011;49452;48.366;10.926;2023-08-21T02:15:08;29.88;;;21.13;;
63326;SDS011;49452;48.366;10.926;2023-08-21T02:15:41;30.52;;;21.50;;
63326;SDS011;49452;48.366;10.926;2023-08-21T02:16:13;22.20;;;19.05;;
63326;SDS011;49452;48.366;10.926;2023-08-21T02:16:47;38.20;;;24.40;;
63326;SDS011;49452;48.366;10.926;2023-08-21T02:17:19;22.88;;;16.98;;
63326;SDS011;49452;48.366;10.926;2023-08-21T02:17:50;43.05;;;27.58;;
63326;SDS011;49452;48.366;10.926;2023-08-21T02:18:21;32.28;;;24.17;;
63326;SDS011;49452;48.366;10.926;2023-08-21T02:18:52;46.30;;;28.90;;
63326;SDS011;49452;48.366;10.926;2023-08-21T02:19:24;34.08;;;26.40;;
63326;SDS011;49452;48.366;10.926;2023-08-21T02:19:55;41.97;;;28.75;;
63326;SDS011;49452;48.366;10.926;2023-08-21T02:20:27;42.45;;;28.52;;
63326;SDS011;49452;48.366;10.926;2023-08-21T02:20:59;46.03;;;30.27;;
63326;SDS011;49452;48.366;10.926;2023-08-21T02:21:34;41.65;;;27.42;;
63326;SDS011;49452;48.366;10.926;2023-08-21T02:22:07;36.78;;;26.98;;
63326;SDS011;49452;48.366;10.926;2023-08-21T02:22:38;63.70;;;34.47;;
63326;SDS011;49452;48.366;10.926;2023-08-21T02:23:09;47.53;;;29.73;;
63326;SDS011;49452;48.366;10.926;2023-08-21T02:23:40;44.35;;;29.58;;
63326;SDS011;49452;48.366;10.926;2023-08-21T02:24:12;34.90;;;26.08;;
63326;SDS011;49452;48.366;10.926;2023-08-21T02:24:43;34.72;;;25.65;;
63326;SDS011;49452;48.366;10.926;2023-08-21T02:25:14;40.00;;;27.42;;
63326;SDS011;49452;48.366;10.926;2023-08-21T02:25:46;40.05;;;26.95;;
63326;SDS011;49452;48.366;10.926;2023-08-21T02:26:17;47.03;;;28.27;;
63326;SDS011;49452;48.366;10.926;2023-08-21T02:26:50;42.35;;;28.85;;
63326;SDS011;49452;48.366;10.926;2023-08-21T02:27:21;41.53;;;26.83;;
63326;SDS011;49452;48.366;10.926;2023-08-21T02:27:53;37.70;;;27.20;;
63326;SDS011;49452;48.366;10.926;2023-08-21T02:28:24;61.15;;;33.72;;
63326;SDS011;49452;48.366;10.926;2023-08-21T02:28:56;85.32;;;39.33;;
63326;SDS011;49452;48.366;10.926;2023-08-21T02:29:28;57.05;;;32.72;;
63326;SDS011;49452;48.366;10.926;2023-08-21T02:30:00;55.58;;;32.67;;
63326;SDS011;49452;48.366;10.926;2023-08-21T02:30:31;44.03;;;29.75;;
63326;SDS011;49452;48.366;10.926;2023-08-21T02:31:02;58.22;;;32.58;;
63326;SDS011;49452;48.366;10.926;2023-08-21T02:31:34;54.67;;;30.45;;
63326;SDS011;49452;48.366;10.926;2023-08-21T02:32:05;48.97;;;28.55;;
63326;SDS011;49452;48.366;10.926;2023-08-21T02:32:37;17.25;;;15.35;;
63326;SDS011;49452;48.366;10.926;2023-08-21T02:33:09;41.53;;;25.60;;
63326;SDS011;49452;48.366;10.926;2023-08-21T02:33:41;44.85;;;28.45;;
63326;SDS011;49452;48.366;10.926;2023-08-21T02:34:12;38.17;;;24.90;;
63326;SDS011;49452;48.366;10.926;2023-08-21T02:34:44;68.55;;;33.53;;
63326;SDS011;49452;48.366;10.926;2023-08-21T02:35:15;63.38;;;33.53;;
63326;SDS011;49452;48.366;10.926;2023-08-21T02:35:46;45.47;;;28.75;;
63326;SDS011;49452;48.366;10.926;2023-08-21T02:36:18;60.33;;;32.42;;
63326;SDS011;49452;48.366;10.926;2023-08-21T02:36:49;45.38;;;29.42;;
63326;SDS011;49452;48.366;10.926;2023-08-21T02:37:20;50.13;;;28.98;;
63326;SDS011;49452;48.366;10.926;2023-08-21T02:37:53;52.17;;;32.35;;
63326;SDS011;49452;48.366;10.926;2023-08-21T02:38:24;62.20;;;35.90;;
63326;SDS011;49452;48.366;10.926;2023-08-21T02:38:56;56.80;;;34.25;;
63326;SDS011;49452;48.366;10.926;2023-08-21T02:39:27;89.25;;;41.83;;
63326;SDS011;49452;48.366;10.926;2023-08-21T02:39:59;73.88;;;35.05;;
63326;SDS011;49452;48.366;10.926;2023-08-21T02:40:30;64.43;;;34.80;;
63326;SDS011;49452;48.366;10.926;2023-08-21T02:41:02;57.33;;;33.05;;
63326;SDS011;49452;48.366;10.926;2023-08-21T02:41:33;54.97;;;33.25;;
63326;SDS011;49452;48.366;10.926;2023-08-21T02:42:05;50.42;;;31.88;;
63326;SDS011;49452;48.366;10.926;2023-08-21T02:42:37;59.78;;;33.70;;
63326;SDS011;49452;48.366;10.926;2023-08-21T02:43:08;41.03;;;27.65;;
63326;SDS011;49452;48.366;10.926;2023-08-21T02:43:40;43.83;;;27.05;;
63326;SDS011;49452;48.366;10.926;2023-08-21T02:44:12;45.17;;;29.15;;
63326;SDS011;49452;48.366;10.926;2023-08-21T02:44:43;39.80;;;27.17;;
63326;SDS011;49452;48.366;10.926;2023-08-21T02:45:14;48.47;;;30.60;;
63326;SDS011;49452;48.366;10.926;2023-08-21T02:45:46;75.70;;;37.67;;
63326;SDS011;49452;48.366;10.926;2023-08-21T02:46:17;53.20;;;31.48;;
63326;SDS011;49452;48.366;10.926;2023-08-21T02:46:49;45.90;;;29.40;;
63326;SDS011;49452;48.366;10.926;2023-08-21T02:47:20;43.60;;;28.15;;
63326;SDS011;49452;48.366;10.926;2023-08-21T02:47:51;38.67;;;26.55;;
63326;SDS011;49452;48.366;10.926;2023-08-21T02:48:22;43.30;;;28.00;;
63326;SDS011;49452;48.366;10.926;2023-08-21T02:48:54;38.80;;;27.33;;
63326;SDS011;49452;48.366;10.926;2023-08-21T02:49:25;59.35;;;33.28;;
63326;SDS011;49452;48.366;10.926;2023-08-21T02:49:56;63.05;;;34.35;;
63326;SDS011;49452;48.366;10.926;2023-08-21T02:50:27;46.38;;;30.55;;
63326;SDS011;49452;48.366;10.926;2023-08-21T02:50:59;49.53;;;31.55;;
63326;SDS011;49452;48.366;10.926;2023-08-21T02:51:31;39.30;;;28.10;;
63326;SDS011;49452;48.366;10.926;2023-08-21T02:52:03;50.53;;;31.42;;
63326;SDS011;49452;48.366;10.926;2023-08-21T02:52:34;47.25;;;31.50;;
63326;SDS011;49452;48.366;10.926;2023-08-21T02:53:06;51.85;;;32.03;;
63326;SDS011;49452;48.366;10.926;2023-08-21T02:53:37;48.63;;;32.05;;
63326;SDS011;49452;48.366;10.926;2023-08-21T02:54:08;44.28;;;29.63;;
63326;SDS011;49452;48.366;10.926;2023-08-21T02:54:40;44.47;;;29.85;;
63326;SDS011;49452;48.366;10.926;2023-08-21T02:55:13;41.80;;;28.73;;
63326;SDS011;49452;48.366;10.926;2023-08-21T02:55:45;42.80;;;29.13;;
63326;SDS011;49452;48.366;10.926;2023-08-21T02:56:18;50.63;;;31.35;;
63326;SDS011;49452;48.366;10.926;2023-08-21T02:56:49;41.72;;;28.17;;
63326;SDS011;49452;48.366;10.926;2023-08-21T02:57:23;47.70;;;30.35;;
63326;SDS011;49452;48.366;10.926;2023-08-21T02:57:55;40.88;;;27.10;;
63326;SDS011;49452;48.366;10.926;2023-08-21T02:58:26;38.83;;;27.13;;
63326;SDS011;49452;48.366;10.926;2023-08-21T02:58:57;47.25;;;29.80;;
63326;SDS011;49452;48.366;10.926;2023-08-21T02:59:28;41.63;;;28.77;;
63326;SDS011;49452;48.366;10.926;2023-08-21T03:00:00;31.15;;;24.90;;
63326;SDS011;49452;48.366;10.926;2023-08-21T03:00:31;35.30;;;25.38;;
63326;SDS011;49452;48.366;10.926;2023-08-21T03:01:02;39.47;;;26.45;;
63326;SDS011;49452;48.366;10.926;2023-08-21T03:01:33;48.13;;;30.20;;
63326;SDS011;49452;48.366;10.926;2023-08-21T03:02:06;44.38;;;29.65;;
63326;SDS011;49452;48.366;10.926;2023-08-21T03:02:37;42.95;;;28.80;;
63326;SDS011;49452;48.366;10.926;2023-08-21T03:03:09;42.95;;;29.25;;
63326;SDS011;49452;48.366;10.926;2023-08-21T03:03:42;59.42;;;33.00;;
63326;SDS011;49452;48.366;10.926;2023-08-21T03:04:13;60.42;;;34.47;;
63326;SDS011;49452;48.366;10.926;2023-08-21T03:04:45;63.33;;;35.05;;
63326;SDS011;49452;48.366;10.926;2023-08-21T03:05:16;54.30;;;32.85;;
63326;SDS011;49452;48.366;10.926;2023-08-21T03:05:48;50.05;;;31.23;;
63326;SDS011;49452;48.366;10.926;2023-08-21T03:06:20;50.03;;;30.05;;
63326;SDS011;49452;48.366;10.926;2023-08-21T03:06:51;41.35;;;28.88;;
63326;SDS011;49452;48.366;10.926;2023-08-21T03:07:22;51.50;;;31.27;;
63326;SDS011;49452;48.366;10.926;2023-08-21T03:07:54;40.33;;;28.70;;
63326;SDS011;49452;48.366;10.926;2023-08-21T03:08:25;41.17;;;27.88;;
63326;SDS011;49452;48.366;10.926;2023-08-21T03:08:56;46.83;;;29.55;;
63326;SDS011;49452;48.366;10.926;2023-08-21T03:09:27;44.88;;;30.80;;
63326;SDS011;49452;48.366;10.926;2023-08-21T03:09:58;40.78;;;28.63;;